sensor_id;sensor_type;location;lat;lon;timestamp;P1;durP1;ratioP1;P2;durP2;ratioP2
22894;SDS011;11614;52.494;6.976;2024-02-14T00:00:18;5.83;;;3.40;;
22894;SDS011;11614;52.494;6.976;2024-02-14T00:02:46;5.27;;;2.63;;
22894;SDS011;11614;52.494;6.976;2024-02-14T00:05:15;7.90;;;4.07;;
22894;SDS011;11614;52.494;6.976;2024-02-14T00:07:41;6.43;;;3.33;;
22894;SDS011;11614;52.494;6.976;2024-02-14T00:10:07;6.73;;;3.53;;
22894;SDS011;11614;52.494;6.976;2024-02-14T00:12:34;4.13;;;2.97;;
22894;SDS011;11614;52.494;6.976;2024-02-14T00:15:00;3.70;;;2.23;;
22894;SDS011;11614;52.494;6.976;2024-02-14T00:17:27;5.03;;;3.13;;
22894;SDS011;11614;52.494;6.976;2024-02-14T00:19:53;6.93;;;2.53;;
22894;SDS011;11614;52.494;6.976;2024-02-14T00:22:19;5.33;;;4.00;;
22894;SDS011;11614;52.494;6.976;2024-02-14T00:24:45;7.00;;;2.70;;
22894;SDS011;11614;52.494;6.976;2024-02-14T00:27:11;8.33;;;4.43;;
22894;SDS011;11614;52.494;6.976;2024-02-14T00:29:39;6.27;;;4.07;;
22894;SDS011;11614;52.494;6.976;2024-02-14T00:32:05;5.70;;;3.37;;
22894;SDS011;11614;52.494;6.976;2024-02-14T00:34:31;5.70;;;3.13;;
22894;SDS011;11614;52.494;6.976;2024-02-14T00:36:57;3.83;;;2.33;;
22894;SDS011;11614;52.494;6.976;2024-02-14T00:39:23;9.07;;;4.70;;
22894;SDS011;11614;52.494;6.976;2024-02-14T00:41:49;6.03;;;3.07;;
22894;SDS011;11614;52.494;6.976;2024-02-14T00:44:17;5.47;;;3.60;;
22894;SDS011;11614;52.494;6.976;2024-02-14T00:46:44;5.80;;;3.53;;
22894;SDS011;11614;52.494;6.976;2024-02-14T00:49:10;8.07;;;3.90;;
22894;SDS011;11614;52.494;6.976;2024-02-14T00:51:36;7.53;;;4.13;;
22894;SDS011;11614;52.494;6.976;2024-02-14T00:54:03;5.80;;;3.40;;
22894;SDS011;11614;52.494;6.976;2024-02-14T00:56:29;4.43;;;2.70;;
22894;SDS011;11614;52.494;6.976;2024-02-14T00:58:55;5.37;;;2.37;;
22894;SDS011;11614;52.494;6.976;2024-02-14T01:01:21;5.53;;;2.73;;
22894;SDS011;11614;52.494;6.976;2024-02-14T01:03:47;4.93;;;2.63;;
22894;SDS011;11614;52.494;6.976;2024-02-14T01:06:14;4.37;;;2.33;;
22894;SDS011;11614;52.494;6.976;2024-02-14T01:08:40;4.47;;;2.87;;
22894;SDS011;11614;52.494;6.976;2024-02-14T01:11:06;4.63;;;3.30;;
22894;SDS011;11614;52.494;6.976;2024-02-14T01:13:32;4.33;;;3.00;;
22894;SDS011;11614;52.494;6.976;2024-02-14T01:15:58;6.83;;;3.13;;
22894;SDS011;11614;52.494;6.976;2024-02-14T01:18:24;5.30;;;2.90;;
22894;SDS011;11614;52.494;6.976;2024-02-14T01:20:50;6.10;;;3.10;;
22894;SDS011;11614;52.494;6.976;2024-02-14T01:23:16;10.40;;;4.57;;
22894;SDS011;11614;52.494;6.976;2024-02-14T01:25:42;4.30;;;3.13;;
22894;SDS011;11614;52.494;6.976;2024-02-14T01:28:08;5.97;;;3.23;;
22894;SDS011;11614;52.494;6.976;2024-02-14T01:30:35;3.27;;;2.23;;
22894;SDS011;11614;52.494;6.976;2024-02-14T01:33:01;3.67;;;2.97;;
22894;SDS011;11614;52.494;6.976;2024-02-14T01:35:28;4.13;;;3.33;;
22894;SDS011;11614;52.494;6.976;2024-02-14T01:37:55;4.20;;;3.20;;
22894;SDS011;11614;52.494;6.976;2024-02-14T01:40:21;5.07;;;3.17;;
22894;SDS011;11614;52.494;6.976;2024-02-14T01:42:47;3.70;;;2.30;;
22894;SDS011;11614;52.494;6.976;2024-02-14T01:45:13;3.27;;;1.83;;
22894;SDS011;11614;52.494;6.976;2024-02-14T01:47:39;4.60;;;3.47;;
22894;SDS011;11614;52.494;6.976;2024-02-14T01:50:06;3.33;;;2.63;;
22894;SDS011;11614;52.494;6.976;2024-02-14T01:52:36;5.50;;;2.73;;
22894;SDS011;11614;52.494;6.976;2024-02-14T01:55:02;4.50;;;2.30;;
22894;SDS011;11614;52.494;6.976;2024-02-14T01:57:29;3.13;;;2.20;;
22894;SDS011;11614;52.494;6.976;2024-02-14T01:59:56;2.53;;;1.80;;
22894;SDS011;11614;52.494;6.976;2024-02-14T02:02:25;3.50;;;2.60;;
22894;SDS011;11614;52.494;6.976;2024-02-14T02:04:51;2.50;;;1.23;;
22894;SDS011;11614;52.494;6.976;2024-02-14T02:07:18;3.13;;;1.80;;
22894;SDS011;11614;52.494;6.976;2024-02-14T02:09:45;5.13;;;3.30;;
22894;SDS011;11614;52.494;6.976;2024-02-14T02:12:11;3.10;;;1.80;;
22894;SDS011;11614;52.494;6.976;2024-02-14T02:14:37;4.03;;;2.67;;
22894;SDS011;11614;52.494;6.976;2024-02-14T02:17:06;6.43;;;2.37;;
22894;SDS011;11614;52.494;6.976;2024-02-14T02:19:33;3.80;;;2.40;;
22894;SDS011;11614;52.494;6.976;2024-02-14T02:22:01;2.87;;;2.00;;
22894;SDS011;11614;52.494;6.976;2024-02-14T02:24:27;6.23;;;2.40;;
22894;SDS011;11614;52.494;6.976;2024-02-14T02:26:53;4.00;;;2.67;;
22894;SDS011;11614;52.494;6.976;2024-02-14T02:29:18;4.50;;;2.23;;
22894;SDS011;11614;52.494;6.976;2024-02-14T02:31:45;3.17;;;2.07;;
22894;SDS011;11614;52.494;6.976;2024-02-14T02:34:10;2.93;;;2.03;;
22894;SDS011;11614;52.494;6.976;2024-02-14T02:36:37;2.87;;;1.83;;
22894;SDS011;11614;52.494;6.976;2024-02-14T02:39:04;4.63;;;2.63;;
22894;SDS011;11614;52.494;6.976;2024-02-14T02:41:30;2.70;;;1.57;;
22894;SDS011;11614;52.494;6.976;2024-02-14T02:43:59;4.50;;;2.80;;
22894;SDS011;11614;52.494;6.976;2024-02-14T02:46:26;4.90;;;2.60;;
22894;SDS011;11614;52.494;6.976;2024-02-14T02:48:52;5.50;;;2.50;;
22894;SDS011;11614;52.494;6.976;2024-02-14T02:51:23;5.87;;;2.83;;
22894;SDS011;11614;52.494;6.976;2024-02-14T02:53:49;3.57;;;1.90;;
22894;SDS011;11614;52.494;6.976;2024-02-14T02:56:17;4.77;;;3.13;;
22894;SDS011;11614;52.494;6.976;2024-02-14T02:58:43;4.23;;;3.10;;
22894;SDS011;11614;52.494;6.976;2024-02-14T03:01:09;4.07;;;2.23;;
22894;SDS011;11614;52.494;6.976;2024-02-14T03:03:36;5.90;;;3.27;;
22894;SDS011;11614;52.494;6.976;2024-02-14T03:06:04;3.13;;;2.40;;
22894;SDS011;11614;52.494;6.976;2024-02-14T03:08:30;6.20;;;1.93;;
22894;SDS011;11614;52.494;6.976;2024-02-14T03:10:56;3.73;;;2.20;;
22894;SDS011;11614;52.494;6.976;2024-02-14T03:13:25;2.90;;;1.80;;
22894;SDS011;11614;52.494;6.976;2024-02-14T03:15:54;4.13;;;2.30;;
22894;SDS011;11614;52.494;6.976;2024-02-14T03:18:22;5.40;;;2.80;;
22894;SDS011;11614;52.494;6.976;2024-02-14T03:20:48;2.47;;;1.73;;
22894;SDS011;11614;52.494;6.976;2024-02-14T03:23:15;4.67;;;2.57;;
22894;SDS011;11614;52.494;6.976;2024-02-14T03:25:41;2.57;;;1.43;;
22894;SDS011;11614;52.494;6.976;2024-02-14T03:28:07;3.50;;;2.23;;
22894;SDS011;11614;52.494;6.976;2024-02-14T03:30:36;3.97;;;2.17;;
22894;SDS011;11614;52.494;6.976;2024-02-14T03:33:04;2.87;;;1.20;;
22894;SDS011;11614;52.494;6.976;2024-02-14T03:35:30;3.93;;;2.13;;
22894;SDS011;11614;52.494;6.976;2024-02-14T03:37:56;4.03;;;2.70;;
22894;SDS011;11614;52.494;6.976;2024-02-14T03:40:22;4.23;;;1.97;;
22894;SDS011;11614;52.494;6.976;2024-02-14T03:42:49;2.80;;;1.80;;
22894;SDS011;11614;52.494;6.976;2024-02-14T03:45:14;3.43;;;1.37;;
22894;SDS011;11614;52.494;6.976;2024-02-14T03:47:40;6.80;;;2.90;;
22894;SDS011;11614;52.494;6.976;2024-02-14T03:50:07;4.47;;;2.57;;
22894;SDS011;11614;52.494;6.976;2024-02-14T03:52:33;3.03;;;1.87;;
22894;SDS011;11614;52.494;6.976;2024-02-14T03:55:02;4.00;;;2.13;;
22894;SDS011;11614;52.494;6.976;2024-02-14T03:57:28;4.73;;;2.50;;
22894;SDS011;11614;52.494;6.976;2024-02-14T03:59:54;4.73;;;2.00;;
22894;SDS011;11614;52.494;6.976;2024-02-14T04:02:21;4.37;;;2.50;;
22894;SDS011;11614;52.494;6.976;2024-02-14T04:04:48;4.97;;;2.73;;
22894;SDS011;11614;52.494;6.976;2024-02-14T04:07:14;4.10;;;2.53;;
22894;SDS011;11614;52.494;6.976;2024-02-14T04:09:40;5.33;;;3.30;;
22894;SDS011;11614;52.494;6.976;2024-02-14T04:12:06;3.23;;;2.23;;
22894;SDS011;11614;52.494;6.976;2024-02-14T04:14:32;5.37;;;2.53;;
22894;SDS011;11614;52.494;6.976;2024-02-14T04:16:58;5.87;;;2.90;;
22894;SDS011;11614;52.494;6.976;2024-02-14T04:19:24;3.70;;;2.60;;
22894;SDS011;11614;52.494;6.976;2024-02-14T04:21:50;5.63;;;3.33;;
22894;SDS011;11614;52.494;6.976;2024-02-14T04:24:16;3.20;;;2.37;;
22894;SDS011;11614;52.494;6.976;2024-02-14T04:26:42;5.90;;;3.00;;
22894;SDS011;11614;52.494;6.976;2024-02-14T04:29:08;5.63;;;3.03;;
22894;SDS011;11614;52.494;6.976;2024-02-14T04:31:34;5.37;;;3.37;;
22894;SDS011;11614;52.494;6.976;2024-02-14T04:34:00;4.80;;;2.87;;
22894;SDS011;11614;52.494;6.976;2024-02-14T04:36:26;6.57;;;3.33;;
22894;SDS011;11614;52.494;6.976;2024-02-14T04:38:52;5.87;;;3.60;;
22894;SDS011;11614;52.494;6.976;2024-02-14T04:41:18;4.57;;;2.83;;
22894;SDS011;11614;52.494;6.976;2024-02-14T04:43:44;3.77;;;2.40;;
22894;SDS011;11614;52.494;6.976;2024-02-14T04:46:10;4.53;;;3.07;;
22894;SDS011;11614;52.494;6.976;2024-02-14T04:48:36;5.83;;;2.50;;
22894;SDS011;11614;52.494;6.976;2024-02-14T04:51:03;4.30;;;2.83;;
22894;SDS011;11614;52.494;6.976;2024-02-14T04:53:30;3.83;;;2.00;;
22894;SDS011;11614;52.494;6.976;2024-02-14T04:55:56;4.40;;;3.33;;
22894;SDS011;11614;52.494;6.976;2024-02-14T04:58:21;3.50;;;2.37;;
22894;SDS011;11614;52.494;6.976;2024-02-14T05:00:47;4.30;;;2.80;;
22894;SDS011;11614;52.494;6.976;2024-02-14T05:03:13;4.20;;;2.87;;
22894;SDS011;11614;52.494;6.976;2024-02-14T05:05:40;4.00;;;3.00;;
22894;SDS011;11614;52.494;6.976;2024-02-14T05:08:06;2.77;;;2.00;;
22894;SDS011;11614;52.494;6.976;2024-02-14T05:10:32;4.03;;;2.67;;
22894;SDS011;11614;52.494;6.976;2024-02-14T05:12:58;4.67;;;3.40;;
22894;SDS011;11614;52.494;6.976;2024-02-14T05:15:24;4.97;;;2.23;;
22894;SDS011;11614;52.494;6.976;2024-02-14T05:17:50;3.30;;;2.33;;
22894;SDS011;11614;52.494;6.976;2024-02-14T05:20:16;4.20;;;2.70;;
22894;SDS011;11614;52.494;6.976;2024-02-14T05:22:42;4.07;;;2.53;;
22894;SDS011;11614;52.494;6.976;2024-02-14T05:25:09;4.83;;;2.20;;
22894;SDS011;11614;52.494;6.976;2024-02-14T05:27:35;3.87;;;2.23;;
22894;SDS011;11614;52.494;6.976;2024-02-14T05:30:02;4.97;;;3.63;;
22894;SDS011;11614;52.494;6.976;2024-02-14T05:32:31;7.57;;;3.10;;
22894;SDS011;11614;52.494;6.976;2024-02-14T05:34:58;4.77;;;3.00;;
22894;SDS011;11614;52.494;6.976;2024-02-14T05:37:24;5.50;;;3.70;;
22894;SDS011;11614;52.494;6.976;2024-02-14T05:39:52;4.87;;;2.17;;
22894;SDS011;11614;52.494;6.976;2024-02-14T05:42:18;3.77;;;1.87;;
22894;SDS011;11614;52.494;6.976;2024-02-14T05:44:44;4.67;;;3.47;;
22894;SDS011;11614;52.494;6.976;2024-02-14T05:47:10;5.07;;;3.43;;
22894;SDS011;11614;52.494;6.976;2024-02-14T05:49:37;5.50;;;3.63;;
22894;SDS011;11614;52.494;6.976;2024-02-14T05:52:03;6.47;;;4.13;;
22894;SDS011;11614;52.494;6.976;2024-02-14T05:54:29;5.70;;;3.63;;
22894;SDS011;11614;52.494;6.976;2024-02-14T05:56:55;7.57;;;4.83;;
22894;SDS011;11614;52.494;6.976;2024-02-14T05:59:22;5.47;;;3.73;;
22894;SDS011;11614;52.494;6.976;2024-02-14T06:01:48;6.03;;;3.40;;
22894;SDS011;11614;52.494;6.976;2024-02-14T06:04:14;5.53;;;3.90;;
22894;SDS011;11614;52.494;6.976;2024-02-14T06:06:40;7.87;;;4.30;;
22894;SDS011;11614;52.494;6.976;2024-02-14T06:09:06;6.13;;;3.60;;
22894;SDS011;11614;52.494;6.976;2024-02-14T06:11:36;7.87;;;5.13;;
22894;SDS011;11614;52.494;6.976;2024-02-14T06:14:04;11.27;;;5.43;;
22894;SDS011;11614;52.494;6.976;2024-02-14T06:16:30;6.00;;;3.30;;
22894;SDS011;11614;52.494;6.976;2024-02-14T06:18:56;6.03;;;3.93;;
22894;SDS011;11614;52.494;6.976;2024-02-14T06:21:22;5.83;;;2.77;;
22894;SDS011;11614;52.494;6.976;2024-02-14T06:23:48;8.77;;;5.93;;
22894;SDS011;11614;52.494;6.976;2024-02-14T06:26:14;11.60;;;7.50;;
22894;SDS011;11614;52.494;6.976;2024-02-14T06:28:40;13.63;;;7.77;;
22894;SDS011;11614;52.494;6.976;2024-02-14T06:31:06;9.63;;;5.03;;
22894;SDS011;11614;52.494;6.976;2024-02-14T06:33:32;10.60;;;7.37;;
22894;SDS011;11614;52.494;6.976;2024-02-14T06:35:58;13.53;;;7.57;;
22894;SDS011;11614;52.494;6.976;2024-02-14T06:38:24;8.17;;;5.47;;
22894;SDS011;11614;52.494;6.976;2024-02-14T06:40:50;10.80;;;5.97;;
22894;SDS011;11614;52.494;6.976;2024-02-14T06:43:16;9.40;;;4.77;;
22894;SDS011;11614;52.494;6.976;2024-02-14T06:45:42;7.10;;;4.20;;
22894;SDS011;11614;52.494;6.976;2024-02-14T06:48:08;7.73;;;4.60;;
22894;SDS011;11614;52.494;6.976;2024-02-14T06:50:35;10.77;;;6.27;;
22894;SDS011;11614;52.494;6.976;2024-02-14T06:53:01;12.83;;;6.53;;
22894;SDS011;11614;52.494;6.976;2024-02-14T06:55:27;15.27;;;8.63;;
22894;SDS011;11614;52.494;6.976;2024-02-14T06:57:55;13.10;;;7.17;;
22894;SDS011;11614;52.494;6.976;2024-02-14T07:00:21;14.53;;;7.90;;
22894;SDS011;11614;52.494;6.976;2024-02-14T07:02:47;10.37;;;5.70;;
22894;SDS011;11614;52.494;6.976;2024-02-14T07:05:13;15.43;;;7.97;;
22894;SDS011;11614;52.494;6.976;2024-02-14T07:07:40;14.77;;;8.33;;
22894;SDS011;11614;52.494;6.976;2024-02-14T07:10:06;18.20;;;9.43;;
22894;SDS011;11614;52.494;6.976;2024-02-14T07:12:33;13.47;;;7.80;;
22894;SDS011;11614;52.494;6.976;2024-02-14T07:15:01;13.53;;;7.83;;
22894;SDS011;11614;52.494;6.976;2024-02-14T07:17:27;13.70;;;6.50;;
22894;SDS011;11614;52.494;6.976;2024-02-14T07:19:53;11.90;;;4.73;;
22894;SDS011;11614;52.494;6.976;2024-02-14T07:22:18;13.90;;;8.53;;
22894;SDS011;11614;52.494;6.976;2024-02-14T07:24:44;15.17;;;8.90;;
22894;SDS011;11614;52.494;6.976;2024-02-14T07:27:11;15.47;;;9.20;;
22894;SDS011;11614;52.494;6.976;2024-02-14T07:29:37;13.53;;;7.17;;
22894;SDS011;11614;52.494;6.976;2024-02-14T07:32:04;10.07;;;6.30;;
22894;SDS011;11614;52.494;6.976;2024-02-14T07:34:31;12.13;;;7.70;;
22894;SDS011;11614;52.494;6.976;2024-02-14T07:36:57;18.03;;;10.13;;
22894;SDS011;11614;52.494;6.976;2024-02-14T07:39:23;16.97;;;9.10;;
22894;SDS011;11614;52.494;6.976;2024-02-14T07:41:50;15.93;;;8.77;;
22894;SDS011;11614;52.494;6.976;2024-02-14T07:44:16;13.73;;;7.60;;
22894;SDS011;11614;52.494;6.976;2024-02-14T07:46:42;15.27;;;8.43;;
22894;SDS011;11614;52.494;6.976;2024-02-14T07:49:08;14.30;;;7.97;;
22894;SDS011;11614;52.494;6.976;2024-02-14T07:51:35;14.80;;;8.03;;
22894;SDS011;11614;52.494;6.976;2024-02-14T07:54:04;10.50;;;7.03;;
22894;SDS011;11614;52.494;6.976;2024-02-14T07:56:30;13.83;;;6.93;;
22894;SDS011;11614;52.494;6.976;2024-02-14T07:58:56;14.70;;;7.70;;
22894;SDS011;11614;52.494;6.976;2024-02-14T08:01:22;14.23;;;6.97;;
22894;SDS011;11614;52.494;6.976;2024-02-14T08:03:48;13.63;;;7.53;;
22894;SDS011;11614;52.494;6.976;2024-02-14T08:06:14;8.80;;;6.60;;
22894;SDS011;11614;52.494;6.976;2024-02-14T08:08:40;13.20;;;8.23;;
22894;SDS011;11614;52.494;6.976;2024-02-14T08:11:11;16.37;;;10.57;;
22894;SDS011;11614;52.494;6.976;2024-02-14T08:13:37;11.13;;;6.00;;
22894;SDS011;11614;52.494;6.976;2024-02-14T08:16:05;14.57;;;8.17;;
22894;SDS011;11614;52.494;6.976;2024-02-14T08:18:31;15.53;;;9.40;;
22894;SDS011;11614;52.494;6.976;2024-02-14T08:20:57;9.47;;;6.10;;
22894;SDS011;11614;52.494;6.976;2024-02-14T08:23:23;11.60;;;7.33;;
22894;SDS011;11614;52.494;6.976;2024-02-14T08:25:49;12.43;;;7.03;;
22894;SDS011;11614;52.494;6.976;2024-02-14T08:28:15;11.07;;;6.93;;
22894;SDS011;11614;52.494;6.976;2024-02-14T08:30:43;10.20;;;6.47;;
22894;SDS011;11614;52.494;6.976;2024-02-14T08:33:09;7.87;;;3.37;;
22894;SDS011;11614;52.494;6.976;2024-02-14T08:35:36;9.93;;;6.80;;
22894;SDS011;11614;52.494;6.976;2024-02-14T08:38:02;9.90;;;5.50;;
22894;SDS011;11614;52.494;6.976;2024-02-14T08:40:28;8.80;;;6.00;;
22894;SDS011;11614;52.494;6.976;2024-02-14T08:42:54;9.73;;;5.37;;
22894;SDS011;11614;52.494;6.976;2024-02-14T08:45:20;6.43;;;3.87;;
22894;SDS011;11614;52.494;6.976;2024-02-14T08:47:46;9.40;;;5.60;;
22894;SDS011;11614;52.494;6.976;2024-02-14T08:50:12;9.67;;;4.87;;
22894;SDS011;11614;52.494;6.976;2024-02-14T08:52:38;7.37;;;4.03;;
22894;SDS011;11614;52.494;6.976;2024-02-14T08:55:05;7.60;;;4.60;;
22894;SDS011;11614;52.494;6.976;2024-02-14T08:57:35;7.53;;;3.83;;
22894;SDS011;11614;52.494;6.976;2024-02-14T09:00:02;8.57;;;4.27;;
22894;SDS011;11614;52.494;6.976;2024-02-14T09:02:29;8.30;;;4.13;;
22894;SDS011;11614;52.494;6.976;2024-02-14T09:04:55;6.20;;;4.17;;
22894;SDS011;11614;52.494;6.976;2024-02-14T09:07:22;7.17;;;4.17;;
22894;SDS011;11614;52.494;6.976;2024-02-14T09:09:48;8.30;;;4.77;;
22894;SDS011;11614;52.494;6.976;2024-02-14T09:12:14;8.83;;;5.47;;
22894;SDS011;11614;52.494;6.976;2024-02-14T09:14:40;6.27;;;4.70;;
22894;SDS011;11614;52.494;6.976;2024-02-14T09:17:06;9.93;;;6.83;;
22894;SDS011;11614;52.494;6.976;2024-02-14T09:19:32;9.87;;;6.30;;
22894;SDS011;11614;52.494;6.976;2024-02-14T09:21:58;7.77;;;3.73;;
22894;SDS011;11614;52.494;6.976;2024-02-14T09:24:24;7.70;;;4.40;;
22894;SDS011;11614;52.494;6.976;2024-02-14T09:26:50;7.03;;;4.43;;
22894;SDS011;11614;52.494;6.976;2024-02-14T09:29:16;5.80;;;3.13;;
22894;SDS011;11614;52.494;6.976;2024-02-14T09:31:42;7.27;;;5.20;;
22894;SDS011;11614;52.494;6.976;2024-02-14T09:34:12;9.50;;;5.03;;
22894;SDS011;11614;52.494;6.976;2024-02-14T09:36:39;9.03;;;5.47;;
22894;SDS011;11614;52.494;6.976;2024-02-14T09:39:05;7.53;;;4.60;;
22894;SDS011;11614;52.494;6.976;2024-02-14T09:41:40;9.50;;;5.37;;
22894;SDS011;11614;52.494;6.976;2024-02-14T09:44:08;10.53;;;6.17;;
22894;SDS011;11614;52.494;6.976;2024-02-14T09:46:35;8.03;;;4.80;;
22894;SDS011;11614;52.494;6.976;2024-02-14T09:49:02;11.43;;;6.93;;
22894;SDS011;11614;52.494;6.976;2024-02-14T09:51:29;10.13;;;6.23;;
22894;SDS011;11614;52.494;6.976;2024-02-14T09:53:55;9.13;;;4.87;;
22894;SDS011;11614;52.494;6.976;2024-02-14T09:56:21;8.33;;;3.27;;
22894;SDS011;11614;52.494;6.976;2024-02-14T09:58:48;8.93;;;5.70;;
22894;SDS011;11614;52.494;6.976;2024-02-14T10:01:21;7.40;;;3.80;;
22894;SDS011;11614;52.494;6.976;2024-02-14T10:03:49;10.67;;;6.30;;
22894;SDS011;11614;52.494;6.976;2024-02-14T10:06:15;10.17;;;6.63;;
22894;SDS011;11614;52.494;6.976;2024-02-14T10:08:41;10.40;;;6.67;;
22894;SDS011;11614;52.494;6.976;2024-02-14T10:11:07;6.43;;;4.13;;
22894;SDS011;11614;52.494;6.976;2024-02-14T10:13:35;10.13;;;7.13;;
22894;SDS011;11614;52.494;6.976;2024-02-14T10:16:01;11.77;;;4.60;;
22894;SDS011;11614;52.494;6.976;2024-02-14T10:18:28;9.83;;;6.23;;
22894;SDS011;11614;52.494;6.976;2024-02-14T10:20:57;9.13;;;4.97;;
22894;SDS011;11614;52.494;6.976;2024-02-14T10:23:23;11.87;;;6.27;;
22894;SDS011;11614;52.494;6.976;2024-02-14T10:25:50;12.60;;;7.30;;
22894;SDS011;11614;52.494;6.976;2024-02-14T10:28:16;11.00;;;5.57;;
22894;SDS011;11614;52.494;6.976;2024-02-14T10:30:45;9.23;;;4.73;;
22894;SDS011;11614;52.494;6.976;2024-02-14T10:33:11;8.10;;;4.03;;
22894;SDS011;11614;52.494;6.976;2024-02-14T10:35:37;6.43;;;4.27;;
22894;SDS011;11614;52.494;6.976;2024-02-14T10:38:06;8.50;;;4.87;;
22894;SDS011;11614;52.494;6.976;2024-02-14T10:40:34;6.93;;;5.03;;
22894;SDS011;11614;52.494;6.976;2024-02-14T10:43:01;7.30;;;5.13;;
22894;SDS011;11614;52.494;6.976;2024-02-14T10:45:27;7.37;;;4.30;;
22894;SDS011;11614;52.494;6.976;2024-02-14T10:47:53;8.97;;;5.00;;
22894;SDS011;11614;52.494;6.976;2024-02-14T10:50:22;7.37;;;4.67;;
22894;SDS011;11614;52.494;6.976;2024-02-14T10:52:49;8.63;;;4.37;;
22894;SDS011;11614;52.494;6.976;2024-02-14T10:55:18;9.97;;;5.77;;
22894;SDS011;11614;52.494;6.976;2024-02-14T10:57:47;7.13;;;4.40;;
22894;SDS011;11614;52.494;6.976;2024-02-14T11:00:15;10.00;;;5.63;;
22894;SDS011;11614;52.494;6.976;2024-02-14T11:02:42;5.13;;;2.83;;
22894;SDS011;11614;52.494;6.976;2024-02-14T11:05:12;8.63;;;5.80;;
22894;SDS011;11614;52.494;6.976;2024-02-14T11:07:43;6.93;;;4.67;;
22894;SDS011;11614;52.494;6.976;2024-02-14T11:10:13;5.27;;;3.00;;
22894;SDS011;11614;52.494;6.976;2024-02-14T11:12:39;4.73;;;3.30;;
22894;SDS011;11614;52.494;6.976;2024-02-14T11:15:09;6.10;;;3.70;;
22894;SDS011;11614;52.494;6.976;2024-02-14T11:17:36;4.43;;;2.27;;
22894;SDS011;11614;52.494;6.976;2024-02-14T11:20:12;6.30;;;3.80;;
22894;SDS011;11614;52.494;6.976;2024-02-14T11:22:39;4.80;;;3.10;;
22894;SDS011;11614;52.494;6.976;2024-02-14T11:25:14;5.03;;;2.73;;
22894;SDS011;11614;52.494;6.976;2024-02-14T11:27:45;6.47;;;3.53;;
22894;SDS011;11614;52.494;6.976;2024-02-14T11:30:11;6.10;;;3.77;;
22894;SDS011;11614;52.494;6.976;2024-02-14T11:32:37;10.37;;;2.10;;
22894;SDS011;11614;52.494;6.976;2024-02-14T11:35:07;4.80;;;3.37;;
22894;SDS011;11614;52.494;6.976;2024-02-14T11:37:37;7.27;;;4.37;;
22894;SDS011;11614;52.494;6.976;2024-02-14T11:40:03;4.10;;;3.03;;
22894;SDS011;11614;52.494;6.976;2024-02-14T11:42:32;4.87;;;2.87;;
22894;SDS011;11614;52.494;6.976;2024-02-14T11:44:58;6.27;;;3.70;;
22894;SDS011;11614;52.494;6.976;2024-02-14T11:47:24;6.77;;;4.00;;
22894;SDS011;11614;52.494;6.976;2024-02-14T11:49:50;4.57;;;2.13;;
22894;SDS011;11614;52.494;6.976;2024-02-14T11:52:17;3.60;;;2.10;;
22894;SDS011;11614;52.494;6.976;2024-02-14T11:54:47;4.50;;;3.40;;
22894;SDS011;11614;52.494;6.976;2024-02-14T11:57:16;6.37;;;3.53;;
22894;SDS011;11614;52.494;6.976;2024-02-14T11:59:42;3.33;;;2.67;;
22894;SDS011;11614;52.494;6.976;2024-02-14T12:02:08;5.20;;;3.03;;
22894;SDS011;11614;52.494;6.976;2024-02-14T12:04:34;5.87;;;3.90;;
22894;SDS011;11614;52.494;6.976;2024-02-14T12:07:01;5.03;;;3.97;;
22894;SDS011;11614;52.494;6.976;2024-02-14T12:09:27;4.57;;;2.53;;
22894;SDS011;11614;52.494;6.976;2024-02-14T12:11:53;5.43;;;3.00;;
22894;SDS011;11614;52.494;6.976;2024-02-14T12:14:19;6.87;;;4.43;;
22894;SDS011;11614;52.494;6.976;2024-02-14T12:16:49;4.07;;;2.17;;
22894;SDS011;11614;52.494;6.976;2024-02-14T12:19:16;7.47;;;4.23;;
22894;SDS011;11614;52.494;6.976;2024-02-14T12:21:42;8.17;;;5.80;;
22894;SDS011;11614;52.494;6.976;2024-02-14T12:24:09;7.43;;;3.93;;
22894;SDS011;11614;52.494;6.976;2024-02-14T12:26:35;6.87;;;3.17;;
22894;SDS011;11614;52.494;6.976;2024-02-14T12:29:02;8.50;;;5.13;;
22894;SDS011;11614;52.494;6.976;2024-02-14T12:31:32;8.67;;;5.07;;
22894;SDS011;11614;52.494;6.976;2024-02-14T12:33:58;7.60;;;5.10;;
22894;SDS011;11614;52.494;6.976;2024-02-14T12:36:28;10.30;;;4.13;;
22894;SDS011;11614;52.494;6.976;2024-02-14T12:38:54;5.67;;;2.87;;
22894;SDS011;11614;52.494;6.976;2024-02-14T12:41:20;10.23;;;3.57;;
22894;SDS011;11614;52.494;6.976;2024-02-14T12:43:51;11.33;;;6.80;;
22894;SDS011;11614;52.494;6.976;2024-02-14T12:46:17;12.37;;;6.53;;
22894;SDS011;11614;52.494;6.976;2024-02-14T12:48:43;8.53;;;4.90;;
22894;SDS011;11614;52.494;6.976;2024-02-14T12:51:09;8.57;;;4.83;;
22894;SDS011;11614;52.494;6.976;2024-02-14T12:53:35;8.30;;;5.13;;
22894;SDS011;11614;52.494;6.976;2024-02-14T12:56:01;9.97;;;6.27;;
22894;SDS011;11614;52.494;6.976;2024-02-14T12:58:29;6.53;;;3.67;;
22894;SDS011;11614;52.494;6.976;2024-02-14T13:00:55;8.43;;;4.67;;
22894;SDS011;11614;52.494;6.976;2024-02-14T13:03:21;8.67;;;5.47;;
22894;SDS011;11614;52.494;6.976;2024-02-14T13:05:47;8.30;;;4.40;;
22894;SDS011;11614;52.494;6.976;2024-02-14T13:08:14;12.80;;;7.63;;
22894;SDS011;11614;52.494;6.976;2024-02-14T13:10:41;7.47;;;5.23;;
22894;SDS011;11614;52.494;6.976;2024-02-14T13:13:07;10.27;;;3.90;;
22894;SDS011;11614;52.494;6.976;2024-02-14T13:15:33;8.67;;;5.10;;
22894;SDS011;11614;52.494;6.976;2024-02-14T13:17:59;9.07;;;5.50;;
22894;SDS011;11614;52.494;6.976;2024-02-14T13:20:25;10.97;;;6.57;;
22894;SDS011;11614;52.494;6.976;2024-02-14T13:22:51;10.27;;;4.67;;
22894;SDS011;11614;52.494;6.976;2024-02-14T13:25:17;9.03;;;5.00;;
22894;SDS011;11614;52.494;6.976;2024-02-14T13:27:44;10.07;;;5.77;;
22894;SDS011;11614;52.494;6.976;2024-02-14T13:30:10;8.27;;;4.37;;
22894;SDS011;11614;52.494;6.976;2024-02-14T13:32:36;7.97;;;4.33;;
22894;SDS011;11614;52.494;6.976;2024-02-14T13:35:02;9.87;;;5.03;;
22894;SDS011;11614;52.494;6.976;2024-02-14T13:37:30;8.63;;;3.57;;
22894;SDS011;11614;52.494;6.976;2024-02-14T13:39:56;7.30;;;3.80;;
22894;SDS011;11614;52.494;6.976;2024-02-14T13:42:22;8.80;;;4.70;;
22894;SDS011;11614;52.494;6.976;2024-02-14T13:44:48;8.43;;;4.93;;
22894;SDS011;11614;52.494;6.976;2024-02-14T13:47:17;6.77;;;5.17;;
22894;SDS011;11614;52.494;6.976;2024-02-14T13:49:43;5.13;;;3.00;;
22894;SDS011;11614;52.494;6.976;2024-02-14T13:52:10;7.13;;;5.07;;
22894;SDS011;11614;52.494;6.976;2024-02-14T13:54:36;4.70;;;3.00;;
22894;SDS011;11614;52.494;6.976;2024-02-14T13:57:02;5.47;;;3.33;;
22894;SDS011;11614;52.494;6.976;2024-02-14T13:59:28;5.67;;;3.47;;
22894;SDS011;11614;52.494;6.976;2024-02-14T14:01:54;7.90;;;3.33;;
22894;SDS011;11614;52.494;6.976;2024-02-14T14:04:20;8.63;;;4.20;;
22894;SDS011;11614;52.494;6.976;2024-02-14T14:06:47;4.77;;;3.23;;
22894;SDS011;11614;52.494;6.976;2024-02-14T14:09:13;5.20;;;3.77;;
22894;SDS011;11614;52.494;6.976;2024-02-14T14:11:39;6.07;;;2.87;;
22894;SDS011;11614;52.494;6.976;2024-02-14T14:14:05;5.23;;;3.33;;
22894;SDS011;11614;52.494;6.976;2024-02-14T14:16:33;6.07;;;3.83;;
22894;SDS011;11614;52.494;6.976;2024-02-14T14:18:59;6.40;;;3.57;;
22894;SDS011;11614;52.494;6.976;2024-02-14T14:21:25;4.87;;;3.00;;
22894;SDS011;11614;52.494;6.976;2024-02-14T14:23:51;3.07;;;1.97;;
22894;SDS011;11614;52.494;6.976;2024-02-14T14:26:17;4.67;;;2.93;;
22894;SDS011;11614;52.494;6.976;2024-02-14T14:28:44;5.33;;;2.47;;
22894;SDS011;11614;52.494;6.976;2024-02-14T14:31:11;3.47;;;2.37;;
22894;SDS011;11614;52.494;6.976;2024-02-14T14:33:37;2.20;;;1.57;;
22894;SDS011;11614;52.494;6.976;2024-02-14T14:36:03;3.87;;;2.10;;
22894;SDS011;11614;52.494;6.976;2024-02-14T14:38:29;3.43;;;2.70;;
22894;SDS011;11614;52.494;6.976;2024-02-14T14:40:56;3.27;;;2.17;;